Time;durP1;ratioP1;P1;durP2;ratioP2;P2;SDS_P1;SDS_P2;PMS_P1;PMS_P2;Temp;Humidity;BMP_temperature;BMP_pressure;BME280_temperature;BME280_humidity;BME280_pressure;Samples;Min_cycle;Max_cycle;Signal;HPM_P1;HPM_P2
2021/03/28 00:00:19;;;;;;;7.00;2.62;;;;;;;4.93;68.92;101754.81;1528915;91;21275;-77
2021/03/28 00:03:04;;;;;;;7.83;3.02;;;;;;;4.92;69.00;101754.36;1551993;89;21285;-77
2021/03/28 00:05:51;;;;;;;7.40;3.80;;;;;;;4.92;69.05;101755.64;1563911;90;21717;-76
2021/03/28 00:08:38;;;;;;;9.28;3.12;;;;;;;4.97;69.10;101764.73;1563597;90;21563;-76
2021/03/28 00:11:23;;;;;;;7.80;2.80;;;;;;;4.99;69.13;101763.94;1575491;90;21320;-76
2021/03/28 00:14:08;;;;;;;5.97;2.67;;;;;;;4.98;69.05;101766.05;1551946;90;21242;-76
2021/03/28 00:16:54;;;;;;;5.58;3.00;;;;;;;4.97;69.05;101769.86;1563944;89;21292;-76
2021/03/28 00:19:39;;;;;;;7.60;3.83;;;;;;;4.92;69.07;101768.45;1576089;88;21662;-76
2021/03/28 00:22:35;;;;;;;5.60;3.17;;;;;;;4.93;69.13;101769.33;1576213;90;21284;-76
2021/03/28 00:25:54;;;;;;;8.73;3.85;;;;;;;4.94;69.15;101768.08;1577457;89;21269;-77
2021/03/28 00:28:47;;;;;;;5.67;2.70;;;;;;;4.95;69.20;101769.81;1571793;89;21274;-77
2021/03/28 00:31:57;;;;;;;5.03;2.75;;;;;;;4.95;69.18;101765.97;1578290;89;21237;-77
2021/03/28 00:34:46;;;;;;;3.75;2.72;;;;;;;4.96;69.17;101771.97;1599826;88;21254;-77
2021/03/28 00:37:31;;;;;;;10.35;2.80;;;;;;;4.94;69.11;101772.34;1579873;90;21677;-77
2021/03/28 00:40:21;;;;;;;10.53;3.45;;;;;;;4.90;69.12;101775.23;1574593;89;21268;-77
2021/03/28 00:43:19;;;;;;;9.38;2.95;;;;;;;4.89;69.19;101782.89;1582086;89;21280;-77
2021/03/28 00:46:05;;;;;;;7.20;3.17;;;;;;;4.88;69.21;101782.44;1564305;89;21252;-77
2021/03/28 00:48:54;;;;;;;7.10;2.83;;;;;;;4.89;69.26;101789.30;1560166;89;21244;-77
2021/03/28 00:51:46;;;;;;;3.50;2.10;;;;;;;4.86;69.21;101786.23;1608926;89;21170;-77
2021/03/28 00:54:47;;;;;;;2.02;1.65;;;;;;;4.86;69.23;101787.94;1570881;90;21175;-77
2021/03/28 00:57:44;;;;;;;5.60;2.80;;;;;;;4.84;69.21;101789.59;1586070;89;21153;-77
2021/03/28 01:00:40;;;;;;;6.40;2.15;;;;;;;4.80;69.20;101792.89;1608744;87;21050;-77
2021/03/28 01:03:57;;;;;;;5.55;2.37;;;;;;;4.74;69.22;101793.60;1577589;89;21070;-77
2021/03/28 01:06:55;;;;;;;4.80;2.17;;;;;;;4.70;69.23;101791.78;1562393;90;21189;-77
2021/03/28 01:10:17;;;;;;;4.55;2.20;;;;;;;4.68;69.27;101796.44;1567629;90;21169;-77
2021/03/28 01:13:30;;;;;;;4.28;2.72;;;;;;;4.62;69.23;101796.73;1583772;90;21181;-77
2021/03/28 01:16:56;;;;;;;5.05;2.58;;;;;;;4.58;69.29;101794.91;1592807;89;21058;-77
2021/03/28 01:20:33;;;;;;;5.35;3.08;;;;;;;4.58;69.30;101794.05;1594023;88;21110;-77
2021/03/28 01:23:40;;;;;;;6.62;2.33;;;;;;;4.53;69.31;101793.05;1587080;90;21248;-76
2021/03/28 01:26:54;;;;;;;5.92;2.55;;;;;;;4.47;69.32;101798.00;1576699;90;21256;-76
2021/03/28 01:29:47;;;;;;;4.83;2.75;;;;;;;4.43;69.38;101806.01;1574851;90;21253;-76
2021/03/28 01:32:49;;;;;;;4.90;2.25;;;;;;;4.40;69.38;101800.80;1581409;88;21267;-76
2021/03/28 01:36:07;;;;;;;6.97;2.65;;;;;;;4.33;69.30;101804.88;1558221;90;21276;-76
2021/03/28 01:39:27;;;;;;;9.38;2.90;;;;;;;4.28;69.37;101803.88;1560709;91;21240;-77
2021/03/28 01:42:42;;;;;;;7.55;2.83;;;;;;;4.22;69.39;101806.67;1552878;90;21245;-77
2021/03/28 01:46:21;;;;;;;6.92;3.30;;;;;;;4.16;69.37;101813.77;1574591;89;21688;-77
2021/03/28 01:49:32;;;;;;;3.62;2.40;;;;;;;4.07;69.42;101807.53;1565567;90;21271;-76
2021/03/28 01:52:41;;;;;;;5.03;2.72;;;;;;;4.01;69.51;101821.43;1557604;91;21233;-76
2021/03/28 01:55:45;;;;;;;4.72;2.02;;;;;;;3.96;69.54;101814.48;1471740;94;21319;-76
2021/03/28 01:58:42;;;;;;;3.85;2.60;;;;;;;3.94;69.60;101816.13;1500004;95;21306;-76
2021/03/28 02:02:07;;;;;;;3.50;2.10;;;;;;;3.94;69.70;101822.52;1491293;94;22244;-77
2021/03/28 02:05:06;;;;;;;7.40;2.20;;;;;;;3.97;69.72;101815.35;1470004;94;21836;-76
2021/03/28 02:08:12;;;;;;;3.12;2.20;;;;;;;3.99;69.73;101814.58;1489470;94;21294;-76
2021/03/28 02:11:28;;;;;;;5.72;2.45;;;;;;;4.02;69.74;101811.65;1493373;94;21352;-76
2021/03/28 02:14:56;;;;;;;6.00;2.85;;;;;;;4.02;69.76;101807.81;1530242;92;21856;-77
2021/03/28 02:18:21;;;;;;;6.90;2.58;;;;;;;3.96;69.70;101814.89;1532480;92;21735;-76
2021/03/28 02:21:28;;;;;;;5.03;2.40;;;;;;;3.94;69.76;101826.36;1483273;95;25443;-76
2021/03/28 02:24:47;;;;;;;6.75;3.27;;;;;;;3.94;69.82;101823.80;1488104;95;21316;-76
2021/03/28 02:27:57;;;;;;;5.42;2.72;;;;;;;3.96;69.87;101829.84;1489966;94;21283;-76
2021/03/28 02:30:56;;;;;;;3.40;2.47;;;;;;;3.99;69.91;101832.90;1505374;93;21317;-76
2021/03/28 02:33:52;;;;;;;4.35;2.17;;;;;;;4.01;69.95;101840.21;1601481;88;21230;-76
2021/03/28 02:36:45;;;;;;;4.45;2.30;;;;;;;4.03;69.93;101840.26;1602095;88;21248;-76
2021/03/28 02:39:59;;;;;;;6.30;2.12;;;;;;;4.05;69.95;101845.02;1603079;88;21230;-76
2021/03/28 02:43:06;;;;;;;4.25;2.35;;;;;;;4.03;69.95;101844.97;1601718;88;21224;-76
2021/03/28 02:46:21;;;;;;;3.80;1.95;;;;;;;4.05;69.99;101852.28;1577236;89;21510;-76
2021/03/28 02:49:54;;;;;;;4.15;2.27;;;;;;;4.08;70.00;101859.18;1577063;89;21266;-76
2021/03/28 02:53:12;;;;;;;3.55;2.20;;;;;;;4.08;69.99;101860.46;1577989;89;21279;-77
2021/03/28 02:56:22;;;;;;;6.75;2.20;;;;;;;4.07;69.99;101861.28;1583161;89;21287;-76
2021/03/28 02:59:21;;;;;;;8.08;2.75;;;;;;;4.09;70.09;101862.20;1584452;89;21228;-76
2021/03/28 03:02:49;;;;;;;4.83;2.10;;;;;;;4.07;70.06;101865.13;1588015;89;21664;-76
2021/03/28 03:05:49;;;;;;;5.75;2.52;;;;;;;4.10;70.13;101865.22;1576357;89;21249;-76
2021/03/28 03:09:03;;;;;;;4.37;2.77;;;;;;;4.11;70.14;101863.98;1544331;91;21243;-76
2021/03/28 03:12:11;;;;;;;5.47;2.00;;;;;;;4.08;70.14;101870.29;1540703;91;21270;-76
2021/03/28 03:15:07;;;;;;;6.58;2.17;;;;;;;4.10;70.17;101873.77;1544093;91;21707;-76
2021/03/28 03:18:31;;;;;;;5.00;2.55;;;;;;;4.11;70.21;101872.95;1542937;91;21254;-76
2021/03/28 03:21:55;;;;;;;4.08;2.47;;;;;;;4.15;70.21;101876.47;1543738;91;21569;-76
2021/03/28 03:25:16;;;;;;;3.67;2.80;;;;;;;4.14;70.22;101879.44;1554705;91;21268;-76
2021/03/28 03:28:31;;;;;;;4.95;2.75;;;;;;;4.14;70.30;101875.59;1537195;91;21304;-76
2021/03/28 03:31:46;;;;;;;3.58;2.22;;;;;;;4.15;70.26;101882.86;1538241;91;21267;-76
2021/03/28 03:34:57;;;;;;;8.65;4.40;;;;;;;4.13;70.29;101883.23;1542824;90;21780;-77
2021/03/28 03:38:19;;;;;;;4.17;3.22;;;;;;;4.10;70.30;101886.97;1542323;91;21266;-77
2021/03/28 03:41:12;;;;;;;5.65;2.87;;;;;;;4.08;70.33;101903.56;1538022;91;21260;-76
2021/03/28 03:44:34;;;;;;;5.05;2.87;;;;;;;4.10;70.43;101895.93;1541839;91;21300;-76
2021/03/28 03:47:24;;;;;;;5.65;4.05;;;;;;;4.12;70.44;101891.73;1541272;91;21251;-76
2021/03/28 03:50:29;;;;;;;7.95;3.42;;;;;;;4.11;70.40;101902.38;1544365;91;21279;-76
2021/03/28 03:53:45;;;;;;;9.55;3.30;;;;;;;4.09;70.38;101902.74;1536790;91;21282;-77
2021/03/28 03:56:59;;;;;;;8.08;3.95;;;;;;;4.09;70.46;101911.70;1537507;88;368224;-76
2021/03/28 04:00:16;;;;;;;7.85;3.47;;;;;;;4.04;70.44;101914.52;1557675;91;21291;-76
2021/03/28 04:03:34;;;;;;;8.25;3.15;;;;;;;3.98;70.44;101917.76;1534077;91;21248;-76
2021/03/28 04:06:53;;;;;;;6.60;3.55;;;;;;;4.01;70.54;101927.63;1554745;90;21228;-75
2021/03/28 04:10:01;;;;;;;5.62;2.92;;;;;;;3.98;70.52;101926.72;1573553;90;21258;-76
2021/03/28 04:13:03;;;;;;;5.90;3.72;;;;;;;3.97;70.55;101925.39;1573040;90;22462;-76
2021/03/28 04:16:21;;;;;;;6.33;3.70;;;;;;;3.99;70.62;101930.14;1562617;90;21830;-76
2021/03/28 04:19:40;;;;;;;6.53;4.00;;;;;;;3.99;70.57;101937.82;1577459;89;21242;-76
2021/03/28 04:22:36;;;;;;;9.35;3.33;;;;;;;3.97;70.61;101933.06;1572629;90;21548;-76
2021/03/28 04:25:45;;;;;;;3.80;2.98;;;;;;;3.97;70.65;101944.58;1560460;90;21248;-76
2021/03/28 04:28:46;;;;;;;7.12;3.75;;;;;;;3.90;70.59;101939.67;1605964;88;21236;-76
2021/03/28 04:31:56;;;;;;;7.35;4.83;;;;;;;3.91;70.73;101950.78;1564800;89;21244;-76
2021/03/28 04:35:06;;;;;;;8.48;5.08;;;;;;;3.92;70.76;101953.39;1575286;90;21244;-76
2021/03/28 04:38:22;;;;;;;7.28;4.35;;;;;;;3.95;70.77;101949.65;1562026;90;21260;-77
2021/03/28 04:41:22;;;;;;;;;;;;;;;3.97;70.79;101957.38;1580321;89;21219;-77
2021/03/28 04:44:47;;;;;;;8.55;5.17;;;;;;;3.95;70.88;101962.44;1576881;89;21227;-77
2021/03/28 04:47:48;;;;;;;9.83;4.53;;;;;;;3.94;70.78;101965.82;1578359;90;21177;-77
2021/03/28 04:51:08;;;;;;;5.12;4.62;;;;;;;3.95;70.87;101962.44;1582411;89;21837;-77
2021/03/28 04:54:33;;;;;;;6.75;4.37;;;;;;;3.96;70.90;101960.75;1600839;88;21252;-77
2021/03/28 04:57:36;;;;;;;4.20;3.37;;;;;;;3.94;70.78;101970.94;1598522;89;21259;-77
2021/03/28 05:00:50;;;;;;;8.98;4.22;;;;;;;3.95;70.91;101975.64;1598166;89;21267;-76
2021/03/28 05:03:55;;;;;;;7.37;5.00;;;;;;;3.95;70.95;101980.77;1598077;89;21238;-76
2021/03/28 05:06:58;;;;;;;15.95;4.72;;;;;;;3.92;70.89;101982.81;1592578;89;21248;-76
2021/03/28 05:10:11;;;;;;;7.17;4.20;;;;;;;3.92;70.96;101985.38;1587670;90;21224;-76
2021/03/28 05:13:41;;;;;;;11.20;4.97;;;;;;;3.90;70.97;101997.66;1579242;90;21565;-76
2021/03/28 05:17:05;;;;;;;6.85;4.55;;;;;;;3.89;70.97;101986.95;1572866;88;21285;-76
2021/03/28 05:20:24;;;;;;;6.97;4.17;;;;;;;3.90;71.07;101993.41;1582420;88;21134;-76
2021/03/28 05:23:34;;;;;;;13.05;5.45;;;;;;;3.97;71.11;102002.16;1588221;89;21244;-76
2021/03/28 05:26:30;;;;;;;10.63;4.75;;;;;;;4.01;71.11;102007.84;1567429;90;21252;-76
2021/03/28 05:29:30;;;;;;;;;;;;;;;4.03;71.08;102010.04;1596329;88;21250;-77
2021/03/28 05:32:55;;;;;;;9.30;5.80;;;;;;;4.01;71.14;102013.37;1587910;88;20465;-77
2021/03/28 05:36:02;;;;;;;8.28;4.80;;;;;;;4.04;71.22;102011.78;1587246;88;26853;-76
2021/03/28 05:39:02;;;;;;;13.62;6.17;;;;;;;4.06;71.07;102016.54;1588179;90;21240;-77
2021/03/28 05:42:41;;;;;;;7.97;5.22;;;;;;;4.09;71.24;102014.08;1588733;88;21224;-77
2021/03/28 05:46:06;;;;;;;9.65;5.60;;;;;;;4.13;71.22;102018.48;1594988;88;21304;-77
2021/03/28 05:49:13;;;;;;;;;;;;;;;4.18;71.17;102015.63;1592864;88;21206;-77
2021/03/28 05:52:20;;;;;;;11.97;5.37;;;;;;;4.20;71.21;102018.23;1591939;88;20337;-77
2021/03/28 05:55:22;;;;;;;10.58;6.12;;;;;;;4.22;71.31;102020.44;1596345;88;21252;-77
2021/03/28 05:58:38;;;;;;;9.08;5.78;;;;;;;4.28;71.30;102029.19;1592181;88;21243;-77
2021/03/28 06:01:52;;;;;;;11.45;5.75;;;;;;;4.32;71.26;102032.31;1589803;88;21254;-77
2021/03/28 06:05:25;;;;;;;8.73;5.42;;;;;;;4.38;71.27;102036.75;1583262;88;21297;-78
2021/03/28 06:08:33;;;;;;;13.70;6.22;;;;;;;4.45;71.23;102040.38;1534549;90;21254;-77
2021/03/28 06:12:09;;;;;;;9.10;6.60;;;;;;;4.46;71.25;102041.72;1503597;92;21270;-77
2021/03/28 06:15:17;;;;;;;9.43;6.50;;;;;;;4.49;71.25;102055.03;1553973;91;21268;-77
2021/03/28 06:18:13;;;;;;;12.60;7.47;;;;;;;4.54;71.28;102060.76;1545862;91;21746;-76
2021/03/28 06:21:07;;;;;;;;;;;;;;;4.56;71.25;102062.95;1532981;92;21543;-77
2021/03/28 06:24:05;;;;;;;11.33;6.40;;;;;;;4.54;71.29;102062.45;1516704;94;21136;-77
2021/03/28 06:27:11;;;;;;;9.33;6.10;;;;;;;4.53;71.31;102069.27;1581622;88;21278;-76
2021/03/28 06:30:52;;;;;;;11.90;6.97;;;;;;;4.51;71.23;102070.91;1550057;89;21189;-77
2021/03/28 06:34:33;;;;;;;9.58;6.03;;;;;;;4.52;71.36;102070.08;1523680;92;21324;-78
2021/03/28 06:37:47;;;;;;;10.35;6.30;;;;;;;4.54;71.39;102076.12;1503870;93;21739;-75
2021/03/28 06:40:42;;;;;;;11.70;6.12;;;;;;;4.54;71.32;102071.41;1478211;95;21688;-73
2021/03/28 06:43:58;;;;;;;11.05;6.35;;;;;;;4.55;71.39;102077.87;1503881;93;21304;-73
2021/03/28 06:47:17;;;;;;;8.63;5.58;;;;;;;4.59;71.43;102079.70;1505271;93;21833;-73
2021/03/28 06:50:34;;;;;;;9.93;6.15;;;;;;;4.62;71.36;102079.80;1514135;93;21938;-73
2021/03/28 06:53:52;;;;;;;12.15;6.67;;;;;;;4.64;71.39;102085.84;1484466;94;21654;-74
2021/03/28 06:57:09;;;;;;;11.55;7.05;;;;;;;4.70;71.42;102087.70;1463676;95;21349;-74
2021/03/28 07:00:28;;;;;;;13.20;8.25;;;;;;;4.74;71.39;102090.81;1478690;94;21326;-74
2021/03/28 07:03:36;;;;;;;12.47;7.30;;;;;;;4.73;71.31;102089.48;1514115;92;21243;-74
2021/03/28 07:06:59;;;;;;;14.38;7.37;;;;;;;4.73;71.39;102086.92;1547422;88;21255;-74
2021/03/28 07:10:04;;;;;;;10.05;7.25;;;;;;;4.77;71.48;102092.61;1571663;89;21641;-74
2021/03/28 07:13:10;;;;;;;16.35;8.53;;;;;;;4.80;71.39;102093.98;1577692;90;21275;-74
2021/03/28 07:16:34;;;;;;;12.10;6.60;;;;;;;4.86;71.51;102091.61;1583650;90;21239;-73
2021/03/28 07:19:50;;;;;;;12.85;6.40;;;;;;;4.93;71.39;102094.83;1587579;89;21275;-72
2021/03/28 07:23:17;;;;;;;12.25;6.58;;;;;;;5.00;71.48;102099.31;1570348;90;21248;-75
2021/03/28 07:26:36;;;;;;;8.75;6.28;;;;;;;5.13;71.49;102098.87;1515746;92;21646;-73
2021/03/28 07:33:25;;;;;;;11.28;7.00;;;;;;;5.37;71.45;102089.72;1514667;92;21317;-74
2021/03/28 07:40:25;;;;;;;10.85;5.95;;;;;;;5.74;71.49;102085.59;1540316;91;21299;-77
2021/03/28 07:43:47;;;;;;;13.25;6.10;;;;;;;6.32;71.79;102081.56;1535886;90;21292;-75
2021/03/28 07:47:16;;;;;;;9.25;5.65;;;;;;;6.67;71.42;102088.85;1575604;89;21309;-74
2021/03/28 07:50:30;;;;;;;9.33;4.83;;;;;;;7.06;71.03;102083.72;1563807;89;21232;-74
2021/03/28 07:53:46;;;;;;;9.35;5.55;;;;;;;7.23;71.12;102083.67;1570056;90;21307;-75
2021/03/28 07:57:03;;;;;;;14.28;5.00;;;;;;;7.55;71.12;102092.44;1558365;90;21284;-75
2021/03/28 08:00:10;;;;;;;10.65;5.10;;;;;;;7.68;70.74;102091.85;1568104;90;22359;-75
2021/03/28 08:03:24;;;;;;;12.10;6.45;;;;;;;7.91;70.76;102089.27;1571473;90;21336;-75
2021/03/28 08:06:48;;;;;;;11.97;4.70;;;;;;;7.98;70.57;102087.25;1565374;88;21257;-75
2021/03/28 08:10:00;;;;;;;11.48;4.28;;;;;;;8.08;70.56;102093.86;1593247;85;21245;-75
2021/03/28 08:13:09;;;;;;;12.43;4.75;;;;;;;8.14;70.62;102081.95;1654047;85;21258;-76
2021/03/28 08:16:21;;;;;;;9.28;4.67;;;;;;;8.30;70.59;102085.66;1667755;84;21757;-75
2021/03/28 08:20:02;;;;;;;9.98;4.37;;;;;;;8.55;70.47;102079.20;1673462;84;21253;-75
2021/03/28 08:23:28;;;;;;;8.45;4.25;;;;;;;8.82;70.32;102078.76;1624471;84;2990009;-75
2021/03/28 08:26:44;;;;;;;10.43;4.33;;;;;;;9.27;70.51;102077.21;1714554;82;21212;-74
2021/03/28 08:29:50;;;;;;;7.65;3.70;;;;;;;9.62;70.46;102077.61;1715232;82;21173;-74
2021/03/28 08:32:52;;;;;;;8.38;3.75;;;;;;;9.65;70.42;102069.03;1626360;86;21278;-74
2021/03/28 08:36:17;;;;;;;13.22;4.05;;;;;;;9.50;70.26;102077.04;1626149;86;21278;-74
2021/03/28 08:39:30;;;;;;;11.75;4.50;;;;;;;9.50;70.21;102073.59;1629850;84;21290;-75
2021/03/28 08:43:02;;;;;;;9.15;4.35;;;;;;;9.37;70.02;102085.91;1580939;88;627791;-75
2021/03/28 08:46:27;;;;;;;11.83;4.65;;;;;;;9.24;69.91;102085.78;1597749;87;21254;-75
2021/03/28 08:49:38;;;;;;;12.73;4.72;;;;;;;9.13;69.87;102092.52;1576723;89;21265;-74
2021/03/28 08:53:11;;;;;;;9.60;4.17;;;;;;;8.96;69.69;102100.44;1586704;88;21300;-75
2021/03/28 08:56:37;;;;;;;14.18;4.40;;;;;;;8.85;69.65;102093.83;1597650;87;21287;-75
2021/03/28 08:59:43;;;;;;;10.15;4.10;;;;;;;8.88;69.83;102098.16;1616165;87;21285;-75
2021/03/28 09:02:55;;;;;;;11.35;4.33;;;;;;;9.07;69.83;102100.17;1604849;87;21266;-75
2021/03/28 09:05:48;;;;;;;12.53;3.45;;;;;;;9.11;69.68;102099.36;1593640;87;21260;-74
2021/03/28 09:08:38;;;;;;;7.22;3.67;;;;;;;9.14;69.66;102099.41;1655185;84;21139;-74
2021/03/28 09:11:52;;;;;;;11.20;4.15;;;;;;;9.11;69.55;102088.17;1655035;84;21210;-75
2021/03/28 09:14:53;;;;;;;11.40;4.10;;;;;;;9.25;69.64;102093.09;1660216;84;21199;-75
2021/03/28 09:17:46;;;;;;;12.82;3.60;;;;;;;9.29;69.32;102100.04;1659839;84;21242;-75
2021/03/28 09:20:55;;;;;;;9.13;3.47;;;;;;;9.29;69.35;102099.61;1627909;84;41034;-75
2021/03/28 09:24:03;;;;;;;9.23;2.95;;;;;;;9.31;69.06;102105.22;1661816;84;21689;-75
2021/03/28 09:27:20;;;;;;;10.63;3.15;;;;;;;9.18;68.79;102107.63;1618608;87;21256;-75
2021/03/28 09:30:31;;;;;;;8.70;3.00;;;;;;;9.03;68.81;102111.29;1619915;86;21245;-75
2021/03/28 09:33:45;;;;;;;11.40;3.10;;;;;;;8.90;68.68;102109.38;1610935;86;21276;-75
2021/03/28 09:36:38;;;;;;;15.18;3.52;;;;;;;8.81;68.83;102113.14;1640891;86;21224;-75
2021/03/28 09:40:15;;;;;;;11.08;3.12;;;;;;;8.71;68.59;102113.41;1634881;85;21284;-75
2021/03/28 09:43:17;;;;;;;9.25;2.58;;;;;;;8.67;68.69;102101.73;1640193;86;21205;-75
2021/03/28 09:46:16;;;;;;;16.37;3.12;;;;;;;8.58;68.58;102105.91;1638077;86;21257;-75
2021/03/28 09:49:34;;;;;;;12.03;3.77;;;;;;;8.56;68.54;102105.44;1617460;86;22340;-75
2021/03/28 09:52:56;;;;;;;11.48;3.52;;;;;;;8.58;68.56;102107.19;1573635;89;21292;-75
2021/03/28 09:56:12;;;;;;;17.95;3.42;;;;;;;8.55;68.40;102107.14;1635061;86;21306;-75
2021/03/28 09:59:23;;;;;;;;;;;;;;;8.64;68.40;102114.16;1641826;86;21299;-75
2021/03/28 10:02:25;;;;;;;15.00;4.20;;;;;;;8.75;68.33;102115.20;1647101;85;20323;-75
2021/03/28 10:05:31;;;;;;;12.13;4.00;;;;;;;8.95;68.36;102114.18;1702295;82;21197;-74
2021/03/28 10:08:19;;;;;;;13.68;3.40;;;;;;;9.05;68.02;102116.47;1702481;82;21230;-74
2021/03/28 10:11:33;;;;;;;14.85;3.92;;;;;;;9.16;68.11;102114.91;1706065;82;21224;-74
2021/03/28 10:14:43;;;;;;;10.48;2.95;;;;;;;9.20;67.82;102103.78;1701288;82;21166;-73
2021/03/28 10:17:47;;;;;;;7.15;2.77;;;;;;;9.26;67.91;102102.58;1703275;82;21179;-75
2021/03/28 10:20:43;;;;;;;7.65;2.92;;;;;;;9.37;67.87;102100.10;1715421;82;21177;-74
2021/03/28 10:23:45;;;;;;;15.23;3.33;;;;;;;9.47;67.67;102104.11;1698131;82;21258;-75
2021/03/28 10:27:28;;;;;;;13.43;3.42;;;;;;;9.48;67.51;102106.27;1700357;82;21242;-73
2021/03/28 10:30:36;;;;;;;12.98;3.05;;;;;;;9.47;67.37;102101.95;1702781;82;21154;-75
2021/03/28 10:34:09;;;;;;;13.65;3.50;;;;;;;9.40;67.25;102098.85;1690680;82;21212;-75
2021/03/28 10:37:36;;;;;;;10.63;3.85;;;;;;;9.39;67.16;102099.70;1712276;82;21246;-76
2021/03/28 10:40:47;;;;;;;15.85;3.98;;;;;;;9.38;67.11;102101.84;1628156;86;21500;-77
2021/03/28 10:44:01;;;;;;;15.38;4.10;;;;;;;9.47;67.14;102097.66;1611581;86;21635;-73
2021/03/28 10:47:23;;;;;;;14.53;3.10;;;;;;;9.56;66.97;102084.86;1591876;88;21776;-73
2021/03/28 10:50:54;;;;;;;10.98;3.65;;;;;;;9.71;67.03;102099.67;1589490;88;21223;-74
2021/03/28 10:53:49;;;;;;;10.53;3.40;;;;;;;9.94;67.01;102093.43;1554713;90;21295;-73
2021/03/28 10:57:17;;;;;;;15.28;4.30;;;;;;;10.13;66.71;102088.02;1585200;89;21235;-73
2021/03/28 11:00:48;;;;;;;10.98;3.25;;;;;;;10.27;66.78;102082.59;1578617;89;21255;-75
2021/03/28 11:03:53;;;;;;;11.08;2.37;;;;;;;10.49;66.68;102084.89;1572476;89;21269;-77
2021/03/28 11:07:07;;;;;;;5.67;2.80;;;;;;;10.62;66.35;102084.14;1578146;89;21589;-76
2021/03/28 11:10:14;;;;;;;9.48;2.60;;;;;;;10.64;66.05;102088.89;1573078;89;21692;-76
2021/03/28 11:13:37;;;;;;;9.05;2.80;;;;;;;10.65;65.90;102096.23;1651042;85;21073;-77
2021/03/28 11:16:38;;;;;;;11.95;3.30;;;;;;;10.65;65.92;102102.27;1653248;84;21211;-76
2021/03/28 11:20:05;;;;;;;9.93;3.10;;;;;;;10.73;65.97;102103.19;1644090;85;21096;-76
2021/03/28 11:23:26;;;;;;;11.97;3.15;;;;;;;10.75;65.70;102102.77;1658722;85;21227;-76
2021/03/28 11:26:33;;;;;;;9.10;2.90;;;;;;;10.77;65.81;102105.38;1641514;84;21206;-76
2021/03/28 11:29:49;;;;;;;8.95;2.70;;;;;;;10.89;65.68;102098.56;1665021;84;21233;-77
2021/03/28 11:32:57;;;;;;;11.97;2.80;;;;;;;10.88;65.45;102096.83;1661133;84;21253;-76
2021/03/28 11:35:59;;;;;;;11.43;3.10;;;;;;;10.93;65.42;102104.59;1667583;84;21247;-76
2021/03/28 11:39:24;;;;;;;9.45;2.67;;;;;;;10.99;65.30;102101.18;1645617;83;21230;-77
2021/03/28 11:42:15;;;;;;;9.38;3.00;;;;;;;11.09;65.37;102104.26;1693384;83;21221;-73
2021/03/28 11:45:05;;;;;;;9.10;3.45;;;;;;;11.08;64.94;102110.30;1685879;83;21215;-73
2021/03/28 11:47:53;;;;;;;11.03;3.55;;;;;;;11.02;64.93;102103.78;1679151;83;21208;-72
2021/03/28 11:50:41;;;;;;;11.30;3.55;;;;;;;11.01;64.92;102102.05;1683853;83;21543;-73
2021/03/28 11:53:33;;;;;;;13.00;2.90;;;;;;;11.06;64.82;102095.18;1678635;83;21233;-73
2021/03/28 11:56:45;;;;;;;12.47;2.77;;;;;;;11.09;64.79;102097.36;1700614;83;21190;-76
2021/03/28 11:59:53;;;;;;;7.35;2.25;;;;;;;11.13;64.61;102096.95;1673964;83;21205;-76
2021/03/28 12:02:38;;;;;;;7.95;2.50;;;;;;;11.12;64.65;102097.80;1676598;83;21229;-76
2021/03/28 12:05:49;;;;;;;11.48;3.12;;;;;;;11.18;64.55;102090.94;1676113;83;21225;-75
2021/03/28 12:08:50;;;;;;;10.20;2.70;;;;;;;11.24;64.38;102074.14;1677735;83;21149;-76
2021/03/28 12:11:48;;;;;;;14.20;2.27;;;;;;;11.23;64.22;102087.08;1638698;86;21256;-76
2021/03/28 12:14:35;;;;;;;17.50;4.05;;;;;;;11.21;64.10;102088.37;1675900;83;21220;-76
2021/03/28 12:17:25;;;;;;;14.05;3.60;;;;;;;11.17;63.86;102087.91;1650694;85;21684;-76
2021/03/28 12:20:20;;;;;;;11.12;2.98;;;;;;;11.10;63.75;102077.52;1680329;83;21198;-76
2021/03/28 12:23:16;;;;;;;8.75;2.42;;;;;;;11.05;63.81;102076.20;1686570;83;21224;-76
2021/03/28 12:26:09;;;;;;;5.45;2.22;;;;;;;11.04;63.64;102084.82;1684358;83;21234;-76
2021/03/28 12:28:58;;;;;;;8.85;2.52;;;;;;;11.06;63.65;102073.18;1679430;83;21213;-76
2021/03/28 12:31:52;;;;;;;11.10;2.30;;;;;;;11.02;63.50;102074.02;1648981;85;21228;-73
2021/03/28 12:34:39;;;;;;;4.17;2.05;;;;;;;11.02;63.38;102075.31;1678657;83;21103;-73
2021/03/28 12:37:28;;;;;;;8.63;3.72;;;;;;;10.96;63.31;102072.27;1678881;83;21253;-74
2021/03/28 12:40:33;;;;;;;7.50;2.67;;;;;;;10.93;63.23;102076.98;1670392;83;21147;-77
2021/03/28 12:43:33;;;;;;;8.48;3.30;;;;;;;10.96;63.25;102083.91;1649137;84;21020;-77
2021/03/28 12:46:47;;;;;;;8.20;2.92;;;;;;;10.92;62.95;102066.63;1655469;84;21173;-77
2021/03/28 12:49:57;;;;;;;12.07;2.98;;;;;;;10.91;62.88;102064.93;1650930;84;21131;-77
2021/03/28 12:52:50;;;;;;;10.55;2.83;;;;;;;10.95;62.75;102068.80;1645220;84;21120;-77
2021/03/28 12:55:40;;;;;;;12.50;4.12;;;;;;;10.95;62.48;102061.47;1623683;87;21157;-77
2021/03/28 12:58:35;;;;;;;11.70;2.80;;;;;;;10.94;62.62;102058.45;1583587;90;21179;-77
2021/03/28 13:01:35;;;;;;;6.67;2.30;;;;;;;10.94;62.56;102058.02;1603037;89;21172;-77
2021/03/28 13:04:23;;;;;;;7.97;2.47;;;;;;;11.03;62.64;102052.03;1581468;88;21878;-77
2021/03/28 13:07:13;;;;;;;11.63;2.22;;;;;;;11.12;62.46;102052.50;1592520;88;21506;-76
2021/03/28 13:09:59;;;;;;;5.58;2.08;;;;;;;11.12;62.02;102066.74;1578356;88;21179;-76
2021/03/28 13:12:44;;;;;;;15.00;2.55;;;;;;;11.08;62.20;102051.63;1605778;87;21482;-76
2021/03/28 13:15:46;;;;;;;7.97;2.33;;;;;;;11.13;62.11;102048.62;1594123;88;21171;-76
2021/03/28 13:18:35;;;;;;;9.08;2.55;;;;;;;11.16;61.99;102042.17;1582863;90;21859;-76
2021/03/28 13:21:27;;;;;;;7.22;2.92;;;;;;;11.24;61.98;102040.91;1618397;87;21167;-77
2021/03/28 13:24:16;;;;;;;7.47;2.40;;;;;;;11.25;61.62;102042.21;1601330;87;21166;-77
2021/03/28 13:27:09;;;;;;;9.78;2.70;;;;;;;11.15;61.48;102044.75;1595546;88;21189;-77
2021/03/28 13:29:58;;;;;;;11.88;3.30;;;;;;;11.11;61.47;102040.42;1592482;88;21186;-77
2021/03/28 13:32:47;;;;;;;5.78;2.20;;;;;;;11.11;61.48;102039.13;1588948;88;21182;-72
2021/03/28 13:35:36;;;;;;;8.00;2.40;;;;;;;11.15;61.52;102040.44;1601972;84;21218;-71
2021/03/28 13:38:33;;;;;;;10.85;2.98;;;;;;;11.19;61.33;102043.91;1653007;84;21203;-71
2021/03/28 13:41:31;;;;;;;10.80;2.45;;;;;;;11.16;61.17;102044.76;1665566;84;21185;-71
2021/03/28 13:44:21;;;;;;;9.78;2.60;;;;;;;11.13;61.03;102043.87;1652787;84;21776;-71
2021/03/28 13:47:06;;;;;;;7.78;2.35;;;;;;;11.11;60.98;102032.66;1605931;84;5199022;-72
2021/03/28 13:49:53;;;;;;;10.68;2.30;;;;;;;11.05;60.84;102037.37;1651878;84;21134;-71
2021/03/28 13:52:41;;;;;;;6.80;2.62;;;;;;;10.98;60.80;102041.21;1671592;84;21217;-71
2021/03/28 13:55:44;;;;;;;6.65;2.10;;;;;;;10.95;60.75;102043.36;1668219;84;21246;-71
2021/03/28 13:58:33;;;;;;;11.83;2.55;;;;;;;10.95;60.78;102035.59;1626753;87;21234;-71
2021/03/28 14:01:33;;;;;;;7.15;2.00;;;;;;;11.01;60.80;102030.45;1701919;82;21382;-71
2021/03/28 14:04:23;;;;;;;7.97;2.33;;;;;;;11.07;60.54;102038.67;1737614;82;21217;-71
2021/03/28 14:07:22;;;;;;;5.03;2.10;;;;;;;11.10;60.50;102027.03;1699528;82;21236;-71
2021/03/28 14:10:32;;;;;;;9.98;3.00;;;;;;;11.13;60.49;102024.03;1709632;82;21198;-71
2021/03/28 14:13:31;;;;;;;9.10;2.92;;;;;;;11.22;60.39;102021.48;1715815;82;21499;-71
2021/03/28 14:16:18;;;;;;;7.42;2.98;;;;;;;11.35;60.42;102025.41;1710963;82;21137;-71
2021/03/28 14:19:11;;;;;;;7.92;2.60;;;;;;;11.44;60.25;102021.53;1686791;82;21015;-71
2021/03/28 14:22:35;;;;;;;11.85;2.80;;;;;;;11.53;60.22;102016.37;1721482;82;21443;-71
2021/03/28 14:25:40;;;;;;;8.88;2.50;;;;;;;11.64;60.14;102012.52;1703600;82;21133;-71
2021/03/28 14:28:39;;;;;;;9.85;2.62;;;;;;;11.69;59.90;102013.39;1717443;82;21164;-71
2021/03/28 14:31:34;;;;;;;7.03;2.80;;;;;;;11.65;59.67;102016.84;1705704;82;21440;-71
2021/03/28 14:34:39;;;;;;;6.10;2.30;;;;;;;11.64;59.69;102019.86;1688103;82;21309;-71
2021/03/28 14:37:35;;;;;;;13.55;2.20;;;;;;;11.65;59.58;102007.34;1711062;82;21141;-71
2021/03/28 14:40:52;;;;;;;10.15;3.10;;;;;;;11.68;59.66;102009.07;1707950;82;21427;-71
2021/03/28 14:44:24;;;;;;;8.50;2.70;;;;;;;11.64;59.43;102006.91;1723976;82;21129;-71